createdAt,value
2022-08-18T00:00:35.776Z, 43.78
2022-08-18T00:01:35.868Z, 43.90
2022-08-18T00:02:35.994Z, 43.76
2022-08-18T00:03:56.517Z, 43.90
2022-08-18T00:04:45.247Z, 44.08
2022-08-18T00:05:36.090Z, 43.97
2022-08-18T00:06:35.948Z, 43.91
2022-08-18T00:07:35.997Z, 44.11
2022-08-18T00:08:38.508Z, 43.90
2022-08-18T00:09:36.049Z, 44.13
2022-08-18T00:10:36.072Z, 44.19
2022-08-18T00:11:41.221Z, 43.95
2022-08-18T00:12:36.129Z, 43.86
2022-08-18T00:13:36.150Z, 44.16
2022-08-18T00:14:36.196Z, 43.85
2022-08-18T00:15:48.786Z, 44.36
2022-08-18T00:16:36.258Z, 44.04
2022-08-18T00:17:36.353Z, 43.93
2022-08-18T00:18:36.321Z, 44.04
2022-08-18T00:19:46.638Z, 44.53
2022-08-18T00:20:36.405Z, 44.34
2022-08-18T00:21:36.483Z, 44.15
2022-08-18T00:22:36.509Z, 43.98
2022-08-18T00:23:36.512Z, 44.38
2022-08-18T00:24:36.519Z, 44.31
2022-08-18T00:25:36.555Z, 44.45
2022-08-18T00:26:37.164Z, 44.39
2022-08-18T00:27:36.634Z, 44.42
2022-08-18T00:28:36.738Z, 44.13
2022-08-18T00:29:36.725Z, 44.57
2022-08-18T00:30:36.809Z, 44.36
2022-08-18T00:31:36.795Z, 44.15
2022-08-18T00:32:36.875Z, 44.30
2022-08-18T00:33:36.907Z, 44.48
2022-08-18T00:34:36.965Z, 44.31
2022-08-18T00:35:37.001Z, 44.41
2022-08-18T00:36:36.987Z, 44.17
2022-08-18T00:37:37.059Z, 44.72
2022-08-18T00:38:37.120Z, 44.31
2022-08-18T00:39:39.807Z, 44.55
2022-08-18T00:40:38.088Z, 44.67
2022-08-18T00:41:37.152Z, 44.50
2022-08-18T00:42:37.193Z, 44.56
2022-08-18T00:43:37.293Z, 44.22
2022-08-18T00:44:37.334Z, 44.31
2022-08-18T00:45:37.303Z, 44.47
2022-08-18T00:46:37.360Z, 44.39
2022-08-18T00:47:42.379Z, 44.61
2022-08-18T00:48:37.453Z, 44.55
2022-08-18T00:49:37.438Z, 44.28
2022-08-18T00:50:37.465Z, 44.60
2022-08-18T00:51:37.502Z, 44.63
2022-08-18T00:52:37.514Z, 44.35
2022-08-18T00:53:37.550Z, 44.79
2022-08-18T00:54:37.586Z, 44.48
2022-08-18T00:55:37.609Z, 44.57
2022-08-18T00:56:37.640Z, 44.71
2022-08-18T00:57:37.688Z, 44.62
2022-08-18T00:58:37.738Z, 44.76
2022-08-18T00:59:37.760Z, 44.47
2022-08-18T01:00:37.879Z, 44.65
2022-08-18T01:01:37.827Z, 44.51
2022-08-18T01:02:37.849Z, 44.58
2022-08-18T01:03:37.897Z, 44.63
2022-08-18T01:04:37.921Z, 44.52
2022-08-18T01:05:37.957Z, 44.44
2022-08-18T01:06:37.996Z, 44.65
2022-08-18T01:07:38.028Z, 44.56
2022-08-18T01:08:38.126Z, 44.54
2022-08-18T01:09:38.115Z, 44.67
2022-08-18T01:10:38.116Z, 44.36
2022-08-18T01:11:38.228Z, 44.54
2022-08-18T01:12:44.877Z, 44.58
2022-08-18T01:13:38.292Z, 44.79
2022-08-18T01:14:38.284Z, 44.93
2022-08-18T01:15:38.306Z, 44.30
2022-08-18T01:16:38.402Z, 44.55
2022-08-18T01:17:38.401Z, 44.62
2022-08-18T01:18:38.408Z, 44.88
2022-08-18T01:19:38.460Z, 44.47
2022-08-18T01:20:38.480Z, 44.54
2022-08-18T01:21:38.528Z, 44.64
2022-08-18T01:22:38.637Z, 45.03
2022-08-18T01:23:38.620Z, 44.51
2022-08-18T01:24:38.629Z, 44.60
2022-08-18T01:25:38.659Z, 44.50
2022-08-18T01:26:44.137Z, 44.47
2022-08-18T01:27:38.729Z, 44.84
2022-08-18T01:28:38.763Z, 44.82
2022-08-18T01:29:42.932Z, 44.38
2022-08-18T01:30:38.840Z, 44.74
2022-08-18T01:31:38.883Z, 44.77
2022-08-18T01:32:38.890Z, 44.44
2022-08-18T01:33:38.935Z, 44.53
2022-08-18T01:34:38.968Z, 44.57
2022-08-18T01:35:41.913Z, 44.62
2022-08-18T01:36:39.034Z, 44.41
2022-08-18T01:37:39.073Z, 44.81
2022-08-18T01:38:39.107Z, 44.74
2022-08-18T01:41:22.317Z, 44.57
2022-08-18T01:41:23.095Z, 44.65
2022-08-18T01:41:39.238Z, 44.73
2022-08-18T01:42:39.230Z, 44.45
2022-08-18T01:43:39.266Z, 44.51
2022-08-18T01:44:39.365Z, 44.62
2022-08-18T01:45:39.350Z, 44.45
2022-08-18T01:46:39.435Z, 44.76
2022-08-18T01:47:48.056Z, 44.42
2022-08-18T01:48:39.434Z, 44.51
2022-08-18T01:49:39.478Z, 44.57
2022-08-18T01:50:39.547Z, 44.57
2022-08-18T01:51:40.943Z, 44.84
2022-08-18T01:52:39.606Z, 44.90
2022-08-18T01:53:39.678Z, 44.91
2022-08-18T01:54:39.673Z, 44.52
2022-08-18T01:55:39.698Z, 44.90
2022-08-18T01:56:39.796Z, 44.32
2022-08-18T01:57:39.818Z, 44.33
2022-08-18T01:58:39.811Z, 44.76
2022-08-18T01:59:39.836Z, 44.48
2022-08-18T02:00:39.897Z, 44.89
2022-08-18T02:01:43.304Z, 44.67
2022-08-18T02:02:39.923Z, 44.30
2022-08-18T02:03:39.945Z, 44.64
2022-08-18T02:04:40.045Z, 44.44
2022-08-18T02:05:40.028Z, 44.59
2022-08-18T02:06:40.116Z, 44.53
2022-08-18T02:07:40.221Z, 44.74
2022-08-18T02:08:42.169Z, 44.74
2022-08-18T02:09:40.169Z, 44.56
2022-08-18T02:10:40.184Z, 44.95
2022-08-18T02:11:40.209Z, 44.67
2022-08-18T02:12:40.263Z, 44.64
2022-08-18T02:13:40.296Z, 44.64
2022-08-18T02:14:40.394Z, 44.56
2022-08-18T02:15:41.981Z, 44.75
2022-08-18T02:16:40.404Z, 44.62
2022-08-18T02:17:40.434Z, 44.52
2022-08-18T02:18:47.796Z, 44.65
2022-08-18T02:19:40.511Z, 44.67
2022-08-18T02:20:40.748Z, 44.43
2022-08-18T02:21:40.593Z, 44.52
2022-08-18T02:22:40.626Z, 45.08
2022-08-18T02:23:40.667Z, 44.46
2022-08-18T02:24:40.689Z, 44.78
2022-08-18T02:25:40.709Z, 44.90
2022-08-18T02:26:40.735Z, 44.37
2022-08-18T02:27:40.790Z, 44.72
2022-08-18T02:28:40.849Z, 44.72
2022-08-18T02:29:40.859Z, 44.34
2022-08-18T02:30:40.937Z, 44.57
2022-08-18T02:31:40.927Z, 44.78
2022-08-18T02:32:40.956Z, 44.69
2022-08-18T02:33:40.974Z, 44.80
2022-08-18T02:34:41.002Z, 44.80
2022-08-18T02:35:41.054Z, 44.60
2022-08-18T02:36:41.145Z, 44.55
2022-08-18T02:37:47.724Z, 44.49
2022-08-18T02:38:41.150Z, 44.72
2022-08-18T02:39:41.216Z, 44.44
2022-08-18T02:40:41.205Z, 44.58
2022-08-18T02:41:41.260Z, 44.70
2022-08-18T02:42:41.291Z, 44.62
2022-08-18T02:43:41.333Z, 44.71
2022-08-18T02:44:41.363Z, 44.51
2022-08-18T02:45:41.417Z, 44.41
2022-08-18T02:46:41.520Z, 44.59
2022-08-18T02:47:41.500Z, 44.51
2022-08-18T02:48:41.540Z, 44.66
2022-08-18T02:49:41.546Z, 44.44
2022-08-18T02:50:41.619Z, 44.70
2022-08-18T02:51:41.600Z, 44.72
2022-08-18T02:52:41.799Z, 44.67
2022-08-18T02:53:41.686Z, 44.59
2022-08-18T02:54:41.708Z, 44.50
2022-08-18T02:55:41.743Z, 44.43
2022-08-18T02:56:42.490Z, 44.87
2022-08-18T02:57:41.794Z, 44.47
2022-08-18T02:58:41.848Z, 44.29
2022-08-18T02:59:41.872Z, 44.18
2022-08-18T03:00:41.964Z, 44.37
2022-08-18T03:01:42.110Z, 44.38
2022-08-18T03:02:41.971Z, 44.56
2022-08-18T03:03:42.001Z, 44.30
2022-08-18T03:04:42.009Z, 44.49
2022-08-18T03:05:42.044Z, 44.58
2022-08-18T03:06:42.112Z, 44.41
2022-08-18T03:07:42.126Z, 44.41
2022-08-18T03:08:42.158Z, 44.47
2022-08-18T03:09:42.191Z, 44.55
2022-08-18T03:10:42.229Z, 44.87
2022-08-18T03:11:43.504Z, 44.59
2022-08-18T03:12:42.294Z, 44.61
2022-08-18T03:13:42.319Z, 44.60
2022-08-18T03:14:42.353Z, 44.63
2022-08-18T03:15:42.387Z, 44.98
2022-08-18T03:16:53.679Z, 44.57
2022-08-18T03:17:42.465Z, 44.76
2022-08-18T03:18:42.487Z, 44.43
2022-08-18T03:19:42.509Z, 44.62
2022-08-18T03:20:42.538Z, 44.45
2022-08-18T03:21:42.631Z, 44.52
2022-08-18T03:22:42.612Z, 44.50
2022-08-18T03:23:42.723Z, 44.58
2022-08-18T03:24:42.732Z, 44.61
2022-08-18T03:25:42.778Z, 44.62
2022-08-18T03:26:42.771Z, 44.59
2022-08-18T03:27:42.782Z, 44.46
2022-08-18T03:28:42.773Z, 44.76
2022-08-18T03:29:42.823Z, 44.55
2022-08-18T03:30:42.908Z, 44.70
2022-08-18T03:31:42.902Z, 44.40
2022-08-18T03:32:45.698Z, 44.48
2022-08-18T03:33:42.967Z, 44.34
2022-08-18T03:34:43.039Z, 44.43
2022-08-18T03:35:43.095Z, 44.21
2022-08-18T03:36:43.068Z, 44.60
2022-08-18T03:37:43.150Z, 44.48
2022-08-18T03:38:43.169Z, 44.51
2022-08-18T03:39:43.304Z, 44.57
2022-08-18T03:40:43.181Z, 44.48
2022-08-18T03:41:44.485Z, 44.35
2022-08-18T03:42:43.238Z, 44.62
2022-08-18T03:43:50.282Z, 44.38
2022-08-18T03:44:43.308Z, 44.78
2022-08-18T03:45:43.362Z, 44.53
2022-08-18T03:46:43.423Z, 44.53
2022-08-18T03:47:43.411Z, 44.53
2022-08-18T03:48:43.492Z, 44.42
2022-08-18T03:49:43.496Z, 44.29
2022-08-18T03:50:43.499Z, 44.50
2022-08-18T03:51:43.773Z, 44.62
2022-08-18T03:52:43.777Z, 42.63
2022-08-18T03:53:43.623Z, 42.14
2022-08-18T03:54:43.718Z, 42.43
2022-08-18T03:55:43.770Z, 42.63
2022-08-18T03:56:43.768Z, 42.24
2022-08-18T03:57:43.804Z, 42.63
2022-08-18T03:58:43.848Z, 42.19
2022-08-18T03:59:43.879Z, 42.20
2022-08-18T04:00:43.878Z, 42.15
2022-08-18T04:01:44.034Z, 42.49
2022-08-18T04:02:43.998Z, 42.19
2022-08-18T04:03:43.981Z, 42.26
2022-08-18T04:04:44.006Z, 41.98
2022-08-18T04:05:44.055Z, 42.21
2022-08-18T04:06:44.110Z, 42.35
2022-08-18T04:07:44.505Z, 42.12
2022-08-18T04:08:44.205Z, 42.35
2022-08-18T04:09:44.189Z, 42.12
2022-08-18T04:10:44.245Z, 42.42
2022-08-18T04:11:44.434Z, 42.13
2022-08-18T04:12:44.378Z, 42.24
2022-08-18T04:13:44.402Z, 42.45
2022-08-18T04:14:44.388Z, 42.35
2022-08-18T04:15:44.413Z, 42.44
2022-08-18T04:16:44.456Z, 42.49
2022-08-18T04:18:03.157Z, 42.16
2022-08-18T04:18:44.529Z, 42.37
2022-08-18T04:19:44.563Z, 42.22
2022-08-18T04:20:59.124Z, 42.40
2022-08-18T04:21:44.623Z, 42.40
2022-08-18T04:22:44.656Z, 42.29
2022-08-18T04:23:44.744Z, 42.59
2022-08-18T04:24:45.398Z, 42.20
2022-08-18T04:25:44.819Z, 42.43
2022-08-18T04:26:44.799Z, 42.56
2022-08-18T04:27:44.826Z, 42.35
2022-08-18T04:28:44.862Z, 42.56
2022-08-18T04:29:44.946Z, 42.46
2022-08-18T04:30:44.942Z, 42.18
2022-08-18T04:31:44.989Z, 42.26
2022-08-18T04:32:45.013Z, 42.35
2022-08-18T04:33:45.043Z, 42.48
2022-08-18T04:34:45.069Z, 42.22
2022-08-18T04:35:45.093Z, 42.38
2022-08-18T04:36:45.135Z, 42.40
2022-08-18T04:37:45.155Z, 42.50
2022-08-18T04:38:45.251Z, 42.45
2022-08-18T04:39:45.413Z, 42.54
2022-08-18T04:40:45.268Z, 42.18
2022-08-18T04:41:45.369Z, 42.46
2022-08-18T04:42:45.327Z, 42.47
2022-08-18T04:43:45.350Z, 42.26
2022-08-18T04:44:45.432Z, 42.38
2022-08-18T04:45:45.470Z, 42.55
2022-08-18T04:46:45.448Z, 42.19
2022-08-18T04:47:45.563Z, 42.38
2022-08-18T04:48:45.529Z, 42.57
2022-08-18T04:49:45.559Z, 42.36
2022-08-18T04:50:45.614Z, 42.50
2022-08-18T04:52:37.898Z, 42.20
2022-08-18T04:52:45.646Z, 42.70
2022-08-18T04:53:45.764Z, 42.39
2022-08-18T04:54:45.723Z, 42.76
2022-08-18T04:55:45.758Z, 42.34
2022-08-18T04:56:45.796Z, 42.16
2022-08-18T04:57:46.006Z, 42.54
2022-08-18T04:58:45.907Z, 42.55
2022-08-18T04:59:45.917Z, 42.40
2022-08-18T05:00:45.978Z, 42.29
2022-08-18T05:01:46.048Z, 42.33
2022-08-18T05:02:46.033Z, 42.58
2022-08-18T05:03:50.400Z, 42.72
2022-08-18T05:04:46.171Z, 42.39
2022-08-18T05:05:46.134Z, 42.46
2022-08-18T05:06:46.153Z, 42.32
2022-08-18T05:07:46.406Z, 42.81
2022-08-18T05:08:46.228Z, 42.27
2022-08-18T05:09:46.251Z, 42.44
2022-08-18T05:10:46.357Z, 42.71
2022-08-18T05:11:46.328Z, 42.53
2022-08-18T05:12:46.327Z, 42.51
2022-08-18T05:13:46.342Z, 42.50
2022-08-18T05:14:46.417Z, 42.42
2022-08-18T05:16:09.057Z, 42.38
2022-08-18T05:16:48.495Z, 42.30
2022-08-18T05:17:50.533Z, 42.51
2022-08-18T05:18:46.537Z, 42.30
2022-08-18T05:19:46.593Z, 42.66
2022-08-18T05:20:46.576Z, 42.47
2022-08-18T05:21:49.610Z, 42.79
2022-08-18T05:22:46.713Z, 42.83
2022-08-18T05:23:46.735Z, 42.40
2022-08-18T05:24:46.718Z, 42.54
2022-08-18T05:25:46.748Z, 42.47
2022-08-18T05:26:46.845Z, 42.32
2022-08-18T05:27:46.858Z, 42.19
2022-08-18T05:28:46.843Z, 42.66
2022-08-18T05:29:46.852Z, 42.69
2022-08-18T05:30:46.891Z, 42.36
2022-08-18T05:31:46.993Z, 40.69
2022-08-18T05:32:50.179Z, 40.73
2022-08-18T05:33:47.007Z, 40.87
2022-08-18T05:34:47.113Z, 40.21
2022-08-18T05:35:47.095Z, 41.15
2022-08-18T05:36:47.162Z, 41.86
2022-08-18T05:37:47.245Z, 42.08
2022-08-18T05:38:47.163Z, 41.76
2022-08-18T05:39:47.286Z, 41.31
2022-08-18T05:40:47.301Z, 41.13
2022-08-18T05:41:47.338Z, 41.22
2022-08-18T05:42:47.297Z, 40.80
2022-08-18T05:43:51.787Z, 41.98
2022-08-18T05:44:47.323Z, 41.45
2022-08-18T05:45:47.356Z, 42.07
2022-08-18T05:46:47.389Z, 42.54
2022-08-18T05:47:47.605Z, 42.59
2022-08-18T05:48:47.464Z, 42.60
2022-08-18T05:49:47.527Z, 42.15
2022-08-18T05:50:47.517Z, 41.54
2022-08-18T05:51:47.594Z, 41.65
2022-08-18T05:52:47.572Z, 40.85
2022-08-18T05:53:47.604Z, 41.89
2022-08-18T05:54:47.640Z, 40.88
2022-08-18T05:55:48.170Z, 40.37
2022-08-18T05:56:47.741Z, 40.72
2022-08-18T05:57:47.799Z, 41.43
2022-08-18T05:58:47.763Z, 39.99
2022-08-18T05:59:48.061Z, 40.79
2022-08-18T06:00:47.823Z, 41.96
2022-08-18T06:01:47.870Z, 41.96
2022-08-18T06:02:48.040Z, 41.01
2022-08-18T06:03:48.008Z, 39.90
2022-08-18T06:04:47.991Z, 40.92
2022-08-18T06:05:47.986Z, 40.76
2022-08-18T06:06:48.207Z, 39.86
2022-08-18T06:07:48.064Z, 40.73
2022-08-18T06:08:48.154Z, 40.31
2022-08-18T06:09:48.182Z, 39.59
2022-08-18T06:10:48.183Z, 39.61
2022-08-18T06:11:48.200Z, 39.70
2022-08-18T06:12:48.273Z, 40.90
2022-08-18T06:13:48.253Z, 40.66
2022-08-18T06:14:48.326Z, 41.38
2022-08-18T06:15:48.329Z, 41.56
2022-08-18T06:16:48.492Z, 41.92
2022-08-18T06:17:48.443Z, 41.64
2022-08-18T06:18:48.436Z, 41.03
2022-08-18T06:19:48.493Z, 41.85
2022-08-18T06:20:48.516Z, 41.02
2022-08-18T06:21:48.555Z, 41.31
2022-08-18T06:22:53.268Z, 40.88
2022-08-18T06:23:48.576Z, 41.84
2022-08-18T06:24:48.612Z, 41.72
2022-08-18T06:25:48.650Z, 41.20
2022-08-18T06:26:48.666Z, 40.40
2022-08-18T06:27:48.779Z, 41.12
2022-08-18T06:28:48.794Z, 41.20
2022-08-18T06:29:48.798Z, 41.37
2022-08-18T06:30:48.802Z, 41.61
2022-08-18T06:32:48.868Z, 41.26
2022-08-18T06:33:48.900Z, 40.99
2022-08-18T06:34:48.909Z, 41.22
2022-08-18T06:35:48.962Z, 41.21
2022-08-18T06:36:48.988Z, 41.64
2022-08-18T06:37:49.085Z, 42.02
2022-08-18T06:38:49.067Z, 42.02
2022-08-18T06:39:49.207Z, 42.05
2022-08-18T06:40:49.160Z, 42.06
2022-08-18T06:41:49.163Z, 41.98
2022-08-18T06:42:49.174Z, 42.20
2022-08-18T06:43:49.282Z, 42.16
2022-08-18T06:44:49.294Z, 41.18
2022-08-18T06:45:49.290Z, 40.47
2022-08-18T06:46:49.358Z, 40.21
2022-08-18T06:47:49.394Z, 39.89
2022-08-18T06:48:49.393Z, 39.72
2022-08-18T06:56:00.739Z, 41.58
2022-08-18T06:56:49.743Z, 41.27
2022-08-18T06:57:49.721Z, 41.76
2022-08-18T06:58:53.081Z, 41.66
2022-08-18T06:59:49.764Z, 41.81
2022-08-18T07:00:49.893Z, 42.10
2022-08-18T07:01:49.850Z, 42.16
2022-08-18T07:02:49.937Z, 41.52
2022-08-18T07:03:49.928Z, 41.44
2022-08-18T07:04:49.938Z, 41.08
2022-08-18T07:05:49.967Z, 40.87
2022-08-18T07:06:50.022Z, 42.07
2022-08-18T07:07:50.078Z, 41.74
2022-08-18T07:08:50.152Z, 40.47
2022-08-18T07:09:50.116Z, 40.51
2022-08-18T07:10:50.141Z, 40.29
2022-08-18T07:11:50.204Z, 41.04
2022-08-18T07:12:50.213Z, 40.13
2022-08-18T07:14:03.685Z, 39.78
2022-08-18T07:14:50.312Z, 39.87
2022-08-18T07:15:50.305Z, 40.31
2022-08-18T07:16:59.213Z, 40.71
2022-08-18T07:17:50.372Z, 40.83
2022-08-18T07:18:50.405Z, 41.27
2022-08-18T07:19:50.446Z, 40.49
2022-08-18T07:20:50.538Z, 41.24
2022-08-18T07:21:50.558Z, 41.66
2022-08-18T07:22:51.220Z, 42.01
2022-08-18T07:24:07.861Z, 41.70
2022-08-18T07:24:50.616Z, 41.95
2022-08-18T07:25:50.719Z, 41.75
2022-08-18T07:26:50.709Z, 41.71
2022-08-18T07:27:50.848Z, 41.08
2022-08-18T07:28:50.814Z, 40.17
2022-08-18T07:29:50.824Z, 41.02
2022-08-18T07:31:13.581Z, 41.68
2022-08-18T07:31:50.837Z, 41.53
2022-08-18T07:32:50.888Z, 41.85
2022-08-18T07:33:50.938Z, 41.10
2022-08-18T07:34:53.268Z, 41.46
2022-08-18T07:35:51.007Z, 41.92
2022-08-18T07:36:51.034Z, 41.99
2022-08-18T07:37:51.321Z, 41.99
2022-08-18T07:38:51.160Z, 41.77
2022-08-18T07:39:51.243Z, 41.96
2022-08-18T07:40:51.210Z, 42.22
2022-08-18T07:41:51.288Z, 41.72
2022-08-18T07:43:00.586Z, 41.32
2022-08-18T07:43:51.303Z, 41.67
2022-08-18T07:44:51.379Z, 42.14
2022-08-18T07:45:51.402Z, 41.50
2022-08-18T07:46:51.436Z, 41.62
2022-08-18T07:47:51.645Z, 40.69
2022-08-18T07:48:52.329Z, 40.39
2022-08-18T07:50:15.633Z, 41.46
2022-08-18T07:50:58.921Z, 40.96
2022-08-18T07:51:53.330Z, 41.90
2022-08-18T07:52:51.569Z, 41.85
2022-08-18T07:53:54.767Z, 41.95
2022-08-18T07:54:51.633Z, 41.22
2022-08-18T07:55:51.670Z, 42.13
2022-08-18T07:56:51.703Z, 41.97
2022-08-18T07:57:51.748Z, 42.09
2022-08-18T07:58:51.816Z, 41.37
2022-08-18T07:59:51.818Z, 41.76
2022-08-18T08:00:59.554Z, 41.81
2022-08-18T08:01:52.020Z, 41.91
2022-08-18T08:02:54.804Z, 42.17
2022-08-18T08:03:51.926Z, 42.05
2022-08-18T08:04:51.972Z, 41.67
2022-08-18T08:05:52.083Z, 42.03
2022-08-18T08:07:20.642Z, 41.70
2022-08-18T08:07:52.441Z, 41.18
2022-08-18T08:08:52.190Z, 40.64
2022-08-18T08:09:52.335Z, 40.93
2022-08-18T08:10:52.199Z, 41.45
2022-08-18T08:11:52.386Z, 41.78
2022-08-18T08:12:52.311Z, 42.12
2022-08-18T08:13:55.646Z, 41.77
2022-08-18T08:14:52.393Z, 42.18
2022-08-18T08:15:52.443Z, 42.25
2022-08-18T08:16:52.456Z, 42.07
2022-08-18T08:17:52.683Z, 41.81
2022-08-18T08:18:52.448Z, 42.36
2022-08-18T08:20:01.333Z, 42.16
2022-08-18T08:20:52.527Z, 42.15
2022-08-18T08:21:53.325Z, 40.78
2022-08-18T08:22:52.603Z, 40.49
2022-08-18T08:23:52.615Z, 41.63
2022-08-18T08:24:52.646Z, 41.73
2022-08-18T08:25:52.676Z, 42.09
2022-08-18T08:26:52.695Z, 42.27
2022-08-18T08:27:53.027Z, 40.87
2022-08-18T08:28:55.858Z, 40.65
2022-08-18T08:29:52.831Z, 41.16
2022-08-18T08:30:52.862Z, 41.90
2022-08-18T08:31:52.894Z, 41.79
2022-08-18T08:32:52.966Z, 42.17
2022-08-18T08:33:53.010Z, 41.98
2022-08-18T08:34:52.995Z, 41.35
2022-08-18T08:35:53.109Z, 41.44
2022-08-18T08:36:53.053Z, 41.82
2022-08-18T08:37:53.321Z, 41.93
2022-08-18T08:38:53.164Z, 42.02
2022-08-18T08:39:53.287Z, 42.12
2022-08-18T08:40:53.179Z, 41.98
2022-08-18T08:41:53.215Z, 41.86
2022-08-18T08:42:53.238Z, 41.20
2022-08-18T08:43:53.289Z, 40.59
2022-08-18T08:44:59.660Z, 41.50
2022-08-18T08:45:53.398Z, 42.18
2022-08-18T08:46:53.379Z, 41.62
2022-08-18T08:47:53.808Z, 42.25
2022-08-18T08:48:53.453Z, 41.58
2022-08-18T08:49:59.093Z, 41.33
2022-08-18T08:50:53.497Z, 41.52
2022-08-18T08:51:53.545Z, 41.73
2022-08-18T08:52:57.123Z, 41.21
2022-08-18T08:53:53.686Z, 41.65
2022-08-18T08:54:53.710Z, 41.50
2022-08-18T08:55:55.755Z, 42.07
2022-08-18T08:56:53.702Z, 41.53
2022-08-18T08:57:53.877Z, 41.27
2022-08-18T08:58:53.825Z, 42.51
2022-08-18T08:59:53.829Z, 41.84
2022-08-18T09:00:53.867Z, 42.20
2022-08-18T09:01:53.943Z, 42.25
2022-08-18T09:02:53.931Z, 41.66
2022-08-18T09:03:53.955Z, 42.49
2022-08-18T09:04:58.158Z, 42.11
2022-08-18T09:05:56.897Z, 41.82
2022-08-18T09:06:54.080Z, 41.99
2022-08-18T09:07:54.181Z, 42.51
2022-08-18T09:08:54.194Z, 42.12
2022-08-18T09:09:54.186Z, 41.80
2022-08-18T09:10:54.251Z, 41.26
2022-08-18T09:11:54.239Z, 40.78
2022-08-18T09:12:54.246Z, 40.51
2022-08-18T09:13:54.296Z, 40.86
2022-08-18T09:14:54.393Z, 41.99
2022-08-18T09:15:54.382Z, 42.19
2022-08-18T09:16:54.468Z, 41.75
2022-08-18T09:17:54.498Z, 42.08
2022-08-18T09:18:54.525Z, 42.21
2022-08-18T09:19:54.533Z, 42.70
2022-08-18T09:20:54.519Z, 42.16
2022-08-18T09:21:54.573Z, 42.40
2022-08-18T09:22:54.796Z, 42.20
2022-08-18T09:23:54.666Z, 42.14
2022-08-18T09:24:54.700Z, 42.64
2022-08-18T09:25:54.836Z, 42.23
2022-08-18T09:26:54.831Z, 42.36
2022-08-18T09:28:10.521Z, 42.17
2022-08-18T09:28:54.898Z, 42.56
2022-08-18T09:29:54.955Z, 42.00
2022-08-18T09:30:54.945Z, 42.33
2022-08-18T09:31:54.922Z, 42.47
2022-08-18T09:32:54.995Z, 42.39
2022-08-18T09:33:55.040Z, 42.33
2022-08-18T09:34:55.027Z, 42.14
2022-08-18T09:35:55.089Z, 41.83
2022-08-18T09:36:55.079Z, 42.31
2022-08-18T09:37:55.099Z, 42.26
2022-08-18T09:38:55.135Z, 41.47
2022-08-18T09:39:55.282Z, 42.16
2022-08-18T09:41:02.410Z, 41.97
2022-08-18T09:41:55.224Z, 42.73
2022-08-18T09:42:55.265Z, 42.26
2022-08-18T09:43:55.325Z, 41.91
2022-08-18T09:44:55.321Z, 42.03
2022-08-18T09:45:55.351Z, 42.00
2022-08-18T09:46:55.874Z, 42.35
2022-08-18T09:47:57.088Z, 42.68
2022-08-18T09:48:55.455Z, 42.74
2022-08-18T09:49:55.582Z, 42.34
2022-08-18T09:50:55.513Z, 42.22
2022-08-18T09:51:55.566Z, 42.18
2022-08-18T09:52:56.060Z, 41.87
2022-08-18T09:53:56.663Z, 42.44
2022-08-18T09:54:55.761Z, 42.39
2022-08-18T09:56:00.708Z, 42.33
2022-08-18T09:56:56.003Z, 42.17
2022-08-18T09:57:55.759Z, 41.97
2022-08-18T09:58:55.778Z, 42.48
2022-08-18T09:59:55.883Z, 42.02
2022-08-18T10:00:55.877Z, 42.25
2022-08-18T10:01:55.920Z, 42.30
2022-08-18T10:02:56.301Z, 42.23
2022-08-18T10:03:56.041Z, 42.36
2022-08-18T10:04:56.061Z, 42.48
2022-08-18T10:05:56.098Z, 42.51
2022-08-18T10:06:56.127Z, 41.87
2022-08-18T10:07:56.164Z, 42.34
2022-08-18T10:08:56.144Z, 42.15
2022-08-18T10:09:56.182Z, 42.19
2022-08-18T10:11:56.254Z, 41.64
2022-08-18T10:12:56.334Z, 42.25
2022-08-18T10:13:56.316Z, 42.25
2022-08-18T10:14:56.397Z, 42.14
2022-08-18T10:15:56.355Z, 42.34
2022-08-18T10:17:21.434Z, 41.61
2022-08-18T10:17:56.413Z, 42.41
2022-08-18T10:18:56.442Z, 42.77
2022-08-18T10:19:56.487Z, 42.02
2022-08-18T10:20:56.495Z, 42.09
2022-08-18T10:21:56.524Z, 42.68
2022-08-18T10:22:56.598Z, 42.65
2022-08-18T10:25:14.149Z, 42.49
2022-08-18T10:25:59.278Z, 42.43
2022-08-18T10:26:56.685Z, 42.79
2022-08-18T10:27:56.911Z, 42.77
2022-08-18T10:28:57.287Z, 42.64
2022-08-18T10:29:56.804Z, 42.73
2022-08-18T10:31:05.918Z, 42.71
2022-08-18T10:32:57.178Z, 42.44
2022-08-18T10:33:56.966Z, 42.28
2022-08-18T10:34:56.987Z, 42.48
2022-08-18T10:35:56.983Z, 42.61
2022-08-18T10:36:58.851Z, 42.57
2022-08-18T10:37:57.025Z, 42.61
2022-08-18T10:38:57.123Z, 42.57
2022-08-18T10:39:57.162Z, 42.70
2022-08-18T10:40:57.135Z, 42.72
2022-08-18T10:41:57.153Z, 42.67
2022-08-18T10:42:57.227Z, 42.75
2022-08-18T10:43:57.459Z, 42.45
2022-08-18T10:44:57.234Z, 42.67
2022-08-18T10:46:24.488Z, 42.90
2022-08-18T10:46:57.352Z, 42.92
2022-08-18T10:47:57.334Z, 42.50
2022-08-18T10:48:57.351Z, 42.40
2022-08-18T10:49:57.377Z, 42.91
2022-08-18T10:50:57.407Z, 42.83
2022-08-18T10:52:00.546Z, 42.36
2022-08-18T10:53:57.511Z, 42.59
2022-08-18T10:54:57.583Z, 42.48
2022-08-18T10:55:57.579Z, 42.71
2022-08-18T10:56:57.726Z, 42.78
2022-08-18T10:57:57.685Z, 42.12
2022-08-18T10:58:57.682Z, 42.65
2022-08-18T10:59:57.742Z, 42.86
2022-08-18T11:00:57.732Z, 42.98
2022-08-18T11:01:57.836Z, 42.41
2022-08-18T11:03:02.669Z, 42.40
2022-08-18T11:03:58.131Z, 42.43
2022-08-18T11:04:59.321Z, 42.66
2022-08-18T11:05:57.883Z, 42.75
2022-08-18T11:06:57.905Z, 42.95
2022-08-18T11:07:58.643Z, 42.90
2022-08-18T11:08:58.057Z, 42.61
2022-08-18T11:10:13.270Z, 42.60
2022-08-18T11:11:27.384Z, 42.57
2022-08-18T11:12:01.304Z, 42.68
2022-08-18T11:12:58.610Z, 42.49
2022-08-18T11:13:58.187Z, 42.69
2022-08-18T11:14:58.175Z, 42.53
2022-08-18T11:15:58.267Z, 42.64
2022-08-18T11:16:58.287Z, 42.12
2022-08-18T11:17:58.286Z, 42.17
2022-08-18T11:18:58.310Z, 42.06
2022-08-18T11:19:58.374Z, 42.04
2022-08-18T11:20:58.408Z, 41.90
2022-08-18T11:21:58.431Z, 42.48
2022-08-18T11:22:58.414Z, 42.11
2022-08-18T11:23:58.458Z, 42.20
2022-08-18T11:24:58.508Z, 42.11
2022-08-18T11:25:58.543Z, 42.24
2022-08-18T11:26:58.863Z, 42.39
2022-08-18T11:27:58.636Z, 42.86
2022-08-18T11:28:58.634Z, 42.16
2022-08-18T11:29:58.716Z, 42.11
2022-08-18T11:30:58.706Z, 42.00
2022-08-18T11:31:59.471Z, 42.14
2022-08-18T11:32:59.212Z, 42.11
2022-08-18T11:33:58.773Z, 42.37
2022-08-18T11:34:58.813Z, 42.15
2022-08-18T11:35:58.853Z, 42.22
2022-08-18T11:36:58.880Z, 42.14
2022-08-18T11:37:59.911Z, 42.15
2022-08-18T11:38:58.940Z, 42.23
2022-08-18T11:39:59.036Z, 42.08
2022-08-18T11:41:11.441Z, 42.09
2022-08-18T11:41:59.105Z, 42.23
2022-08-18T11:42:59.079Z, 42.48
2022-08-18T11:43:59.122Z, 42.26
2022-08-18T11:44:59.181Z, 42.00
2022-08-18T11:45:59.237Z, 42.60
2022-08-18T11:46:59.290Z, 42.44
2022-08-18T11:47:59.343Z, 42.14
2022-08-18T11:49:00.446Z, 41.97
2022-08-18T11:49:59.334Z, 42.62
2022-08-18T11:50:59.436Z, 42.91
2022-08-18T11:52:03.043Z, 42.96
2022-08-18T11:52:59.455Z, 42.38
2022-08-18T11:54:00.062Z, 42.47
2022-08-18T11:54:59.503Z, 42.49
2022-08-18T11:55:59.600Z, 42.24
2022-08-18T11:56:59.635Z, 42.86
2022-08-18T11:58:00.270Z, 43.10
2022-08-18T11:58:59.653Z, 42.77
2022-08-18T12:00:00.613Z, 43.12
2022-08-18T12:01:02.996Z, 42.19
2022-08-18T12:01:59.735Z, 42.18
2022-08-18T12:02:59.790Z, 42.47
2022-08-18T12:03:59.881Z, 42.07
2022-08-18T12:05:02.883Z, 42.04
2022-08-18T12:05:59.939Z, 42.59
2022-08-18T12:06:59.939Z, 42.44
2022-08-18T12:08:01.866Z, 42.11
2022-08-18T12:08:59.965Z, 42.62
2022-08-18T12:11:00.092Z, 43.47
2022-08-18T12:12:00.082Z, 43.97
2022-08-18T12:13:00.644Z, 43.51
2022-08-18T12:14:00.152Z, 43.79
2022-08-18T12:15:10.430Z, 44.10
2022-08-18T12:16:00.190Z, 43.86
2022-08-18T12:17:01.281Z, 43.75
2022-08-18T12:18:00.254Z, 44.06
2022-08-18T12:19:00.285Z, 43.76
2022-08-18T12:20:00.395Z, 43.93
2022-08-18T12:21:02.700Z, 43.83
2022-08-18T12:22:00.394Z, 43.78
2022-08-18T12:23:00.432Z, 44.17
2022-08-18T12:24:00.461Z, 44.06
2022-08-18T12:25:00.489Z, 43.65
2022-08-18T12:26:00.573Z, 43.96
2022-08-18T12:27:00.887Z, 43.67
2022-08-18T12:28:00.590Z, 43.83
2022-08-18T12:29:01.334Z, 44.05
2022-08-18T12:30:00.663Z, 44.44
2022-08-18T12:31:00.710Z, 43.88
2022-08-18T12:32:00.733Z, 43.97
2022-08-18T12:33:10.201Z, 43.61
2022-08-18T12:34:01.392Z, 44.12
2022-08-18T12:35:07.160Z, 44.06
2022-08-18T12:36:00.918Z, 43.76
2022-08-18T12:37:00.927Z, 43.60
2022-08-18T12:38:03.310Z, 43.84
2022-08-18T12:39:01.028Z, 44.02
2022-08-18T12:40:01.098Z, 43.89
2022-08-18T12:41:01.021Z, 44.00